createdAt,value
2019-03-04T18:29:04.455Z,72.90
2019-03-04T18:31:43.911Z,74.50
2019-03-04T18:34:36.636Z,73.80
2019-03-04T18:37:18.217Z,74.20
2019-03-04T18:39:55.060Z,74.70
2019-03-04T18:42:34.834Z,74.70
2019-03-04T18:51:44.923Z,75.20
2019-03-04T18:54:12.842Z,75.50
2019-03-04T18:56:40.759Z,75.30
2019-03-04T18:59:08.625Z,75.30
2019-03-04T19:01:40.306Z,75.30
2019-03-04T19:04:09.794Z,76.20
2019-03-04T19:06:39.621Z,75.00
2019-03-04T19:09:10.640Z,75.00
2019-03-04T19:11:40.144Z,74.70
2019-03-04T19:14:08.132Z,74.80
2019-03-04T19:16:36.819Z,75.50
2019-03-04T19:19:07.112Z,75.00
2019-03-04T19:21:35.226Z,74.40
2019-03-04T19:24:03.397Z,74.30
2019-03-04T19:26:35.270Z,73.70
2019-03-04T19:29:04.005Z,73.90
2019-03-04T19:31:36.488Z,73.90
2019-03-04T19:34:31.091Z,73.80
2019-03-04T19:37:01.028Z,74.00
2019-03-04T19:39:29.452Z,74.30
2019-03-04T19:41:57.991Z,74.20
2019-03-04T19:44:26.942Z,74.40
2019-03-04T19:46:57.105Z,74.00
2019-03-04T19:49:25.390Z,73.90
2019-03-04T19:51:55.094Z,74.30
2019-03-04T19:54:23.702Z,74.20
2019-03-04T19:56:53.815Z,74.60
2019-03-04T19:59:23.092Z,74.60
2019-03-04T20:01:50.980Z,74.80
2019-03-04T20:04:19.553Z,74.40
2019-03-04T20:06:48.649Z,74.70
2019-03-04T20:09:16.541Z,74.60
2019-03-04T20:11:44.733Z,74.40
2019-03-04T20:14:12.616Z,74.60
2019-03-04T20:16:41.493Z,75.40
2019-03-04T20:19:09.630Z,74.50
2019-03-04T20:21:37.693Z,75.30
2019-03-04T20:24:05.584Z,74.20
2019-03-04T20:26:33.388Z,74.30
2019-03-04T20:29:01.456Z,74.60
2019-03-04T20:31:30.129Z,74.70
2019-03-04T20:33:58.012Z,74.20
2019-03-04T20:36:26.012Z,74.60
2019-03-04T20:38:54.774Z,74.50
2019-03-04T20:41:22.676Z,74.20
2019-03-04T20:43:50.761Z,74.30
2019-03-04T20:46:18.551Z,74.60
2019-03-04T20:48:46.311Z,75.20
2019-03-04T20:51:14.153Z,75.00
2019-03-04T20:53:41.936Z,75.40
2019-03-04T20:56:09.758Z,75.60
2019-03-04T20:58:37.620Z,76.10
2019-03-04T21:01:05.539Z,76.50
2019-03-04T21:03:35.054Z,76.70
2019-03-04T21:06:02.943Z,76.80
2019-03-04T21:08:30.965Z,77.00
2019-03-04T21:10:58.953Z,77.00
